Time;durP1;ratioP1;P1;durP2;ratioP2;P2;SDS_P1;SDS_P2;PMS_P1;PMS_P2;Temp;Humidity;BMP_temperature;BMP_pressure;BME280_temperature;BME280_humidity;BME280_pressure;Samples;Min_cycle;Max_cycle;Signal;HPM_P1;HPM_P2
2021/04/03 00:01:50;;;;;;;6.40;4.67;;;9.20;99.90;;;;;;4158553;28;20041;-65
2021/04/03 00:03:51;;;;;;;6.87;4.63;;;9.20;99.90;;;;;;4155084;28;20030;-65
2021/04/03 00:05:53;;;;;;;8.53;4.20;;;9.20;99.90;;;;;;4158793;28;20614;-71
2021/04/03 00:07:55;;;;;;;7.87;4.57;;;9.20;99.90;;;;;;4156267;28;20079;-64
2021/04/03 00:09:56;;;;;;;5.90;4.67;;;9.10;99.90;;;;;;4158356;28;20041;-64
2021/04/03 00:11:57;;;;;;;5.50;3.63;;;9.20;99.90;;;;;;4157152;28;20079;-65
2021/04/03 00:13:58;;;;;;;6.83;4.47;;;9.20;99.90;;;;;;4157096;28;20485;-65
2021/04/03 00:15:59;;;;;;;5.73;4.40;;;9.20;99.90;;;;;;4157757;28;20033;-65
2021/04/03 00:18:01;;;;;;;7.47;4.70;;;9.10;99.90;;;;;;4156935;28;20025;-67
2021/04/03 00:20:03;;;;;;;6.70;4.40;;;9.20;99.90;;;;;;4157501;28;20068;-63
2021/04/03 00:22:05;;;;;;;8.03;4.23;;;9.10;99.90;;;;;;4155881;28;20049;-64
2021/04/03 00:24:06;;;;;;;6.10;4.00;;;9.10;99.90;;;;;;4157765;28;20033;-63
2021/04/03 00:26:07;;;;;;;5.27;4.33;;;9.10;99.90;;;;;;4156540;28;20099;-67
2021/04/03 00:28:09;;;;;;;7.80;4.70;;;9.10;99.90;;;;;;4157750;28;20087;-65
2021/04/03 00:30:15;;;;;;;5.87;4.60;;;9.10;99.90;;;;;;4155658;28;20111;-65
2021/04/03 00:32:16;;;;;;;5.27;4.07;;;9.10;99.90;;;;;;4157509;28;20053;-67
2021/04/03 00:34:17;;;;;;;7.43;5.00;;;9.10;99.90;;;;;;4155764;28;20049;-67
2021/04/03 00:36:18;;;;;;;7.10;4.63;;;9.00;99.90;;;;;;4157596;28;20033;-64
2021/04/03 00:38:20;;;;;;;10.00;5.17;;;9.00;99.90;;;;;;4156170;28;20544;-64
2021/04/03 00:40:27;;;;;;;7.47;5.07;;;9.00;99.90;;;;;;4158814;28;20064;-66
2021/04/03 00:42:29;;;;;;;6.93;4.73;;;9.00;99.90;;;;;;4158572;28;20560;-64
2021/04/03 00:44:30;;;;;;;9.47;5.80;;;9.00;99.90;;;;;;4157800;28;20063;-65
2021/04/03 00:46:31;;;;;;;8.67;5.53;;;9.00;99.90;;;;;;4156891;28;20110;-66
2021/04/03 00:48:35;;;;;;;9.40;5.50;;;8.90;99.90;;;;;;4157213;28;20038;-65
2021/04/03 00:50:39;;;;;;;9.20;6.00;;;8.90;99.90;;;;;;4156000;28;20034;-67
2021/04/03 00:52:41;;;;;;;10.30;5.30;;;8.80;99.90;;;;;;4156535;28;20038;-63
2021/04/03 00:54:43;;;;;;;8.97;6.10;;;8.80;99.90;;;;;;4157299;28;20033;-68
2021/04/03 00:56:44;;;;;;;9.27;6.33;;;8.70;99.90;;;;;;4155797;28;20080;-68
2021/04/03 00:58:45;;;;;;;8.07;5.10;;;8.70;99.90;;;;;;4157473;28;20045;-67
2021/04/03 01:00:47;;;;;;;8.20;5.30;;;8.60;99.90;;;;;;4155748;28;20033;-67
2021/04/03 01:02:48;;;;;;;9.27;5.90;;;8.50;99.90;;;;;;4157238;28;20037;-67
2021/04/03 01:04:49;;;;;;;9.67;5.67;;;8.50;99.90;;;;;;4155568;28;20386;-68
2021/04/03 01:06:51;;;;;;;8.07;5.60;;;8.50;99.90;;;;;;4157366;28;20465;-65
2021/04/03 01:08:52;;;;;;;9.43;4.67;;;8.50;99.90;;;;;;4170607;28;20090;-67
2021/04/03 01:10:55;;;;;;;8.50;4.50;;;8.40;99.90;;;;;;4173998;28;20094;-66
2021/04/03 01:13:15;;;;;;;6.80;4.77;;;8.40;99.90;;;;;;4171864;28;20500;-64
2021/04/03 01:15:21;;;;;;;7.82;5.15;;;8.40;99.90;;;;;;4161137;28;20099;-64
2021/04/03 01:18:00;;;;;;;8.73;4.50;;;8.40;99.90;;;;;;4155688;28;20025;-64
2021/04/03 01:20:33;;;;;;;14.73;5.20;;;8.40;99.90;;;;;;4157037;28;20033;-64
2021/04/03 01:22:53;;;;;;;7.63;4.57;;;8.40;99.90;;;;;;4155861;28;20620;-65
2021/04/03 01:25:03;;;;;;;14.27;5.67;;;8.40;99.90;;;;;;4156371;28;20033;-65
2021/04/03 01:27:10;;;;;;;10.60;5.32;;;8.40;99.90;;;;;;4138796;28;20490;-65
2021/04/03 01:29:14;;;;;;;8.87;5.67;;;8.40;99.90;;;;;;4138961;28;20096;-64
2021/04/03 01:31:15;;;;;;;8.57;4.60;;;8.30;99.90;;;;;;4138496;28;20046;-65
2021/04/03 01:33:21;;;;;;;7.50;5.17;;;8.30;99.90;;;;;;4152974;28;20390;-67
2021/04/03 01:35:28;;;;;;;9.13;4.40;;;8.30;99.90;;;;;;4155052;28;20033;-65
2021/04/03 01:37:31;;;;;;;9.97;4.97;;;8.30;99.90;;;;;;4157194;28;20785;-69
2021/04/03 01:39:38;;;;;;;5.30;4.50;;;8.30;99.90;;;;;;4155503;28;20181;-64
2021/04/03 01:41:44;;;;;;;9.63;5.57;;;8.30;99.90;;;;;;4156756;28;20021;-68
2021/04/03 01:43:49;;;;;;;4.90;4.17;;;8.30;99.90;;;;;;4154955;28;20030;-68
2021/04/03 01:45:54;;;;;;;6.90;5.53;;;8.30;99.90;;;;;;4156661;28;21039;-70
2021/04/03 01:47:56;;;;;;;8.43;5.50;;;8.20;99.90;;;;;;4155761;28;20042;-67
2021/04/03 01:49:59;;;;;;;8.87;5.23;;;8.20;99.90;;;;;;4157158;28;20041;-68
2021/04/03 01:52:00;;;;;;;9.90;5.83;;;8.10;99.90;;;;;;4155009;28;20025;-66
2021/04/03 01:54:02;;;;;;;8.60;5.10;;;8.10;99.90;;;;;;4155957;28;20075;-66
2021/04/03 01:56:05;;;;;;;9.63;5.33;;;8.10;99.90;;;;;;4155372;28;20774;-65
2021/04/03 01:58:07;;;;;;;7.93;4.97;;;8.10;99.90;;;;;;4156472;28;20045;-66
2021/04/03 02:00:14;;;;;;;7.87;4.97;;;8.10;99.90;;;;;;4155565;28;20091;-63
2021/04/03 02:02:16;;;;;;;7.37;4.13;;;8.10;99.90;;;;;;4156180;28;20087;-65
2021/04/03 02:04:18;;;;;;;5.73;3.83;;;8.10;99.90;;;;;;4153941;28;20045;-65
2021/04/03 02:06:21;;;;;;;7.77;4.50;;;8.10;99.90;;;;;;4155684;28;20095;-65
2021/04/03 02:08:22;;;;;;;7.23;4.03;;;8.10;99.90;;;;;;4155840;28;20025;-64
2021/04/03 02:10:28;;;;;;;6.90;4.13;;;8.10;99.90;;;;;;4155623;28;20064;-64
2021/04/03 02:12:29;;;;;;;7.07;5.13;;;8.20;99.90;;;;;;4155914;28;20719;-63
2021/04/03 02:14:31;;;;;;;6.13;4.63;;;8.10;99.90;;;;;;4155384;28;20030;-68
2021/04/03 02:16:34;;;;;;;7.43;4.30;;;8.10;99.90;;;;;;4157188;28;20033;-64
2021/04/03 02:18:38;;;;;;;9.53;4.90;;;8.10;99.90;;;;;;4155354;28;20041;-64
2021/04/03 02:20:40;;;;;;;8.07;5.57;;;8.10;99.90;;;;;;4156543;28;20088;-64
2021/04/03 02:22:42;;;;;;;8.43;5.03;;;8.10;99.90;;;;;;4157320;28;20488;-64
2021/04/03 02:24:44;;;;;;;7.27;4.90;;;8.00;99.90;;;;;;4159972;28;20428;-64
2021/04/03 02:26:45;;;;;;;8.67;5.30;;;8.00;99.90;;;;;;4157431;28;20085;-64
2021/04/03 02:28:48;;;;;;;9.30;5.60;;;7.90;99.90;;;;;;4160021;28;20697;-65
2021/04/03 02:30:49;;;;;;;9.83;5.50;;;7.90;99.90;;;;;;4157929;28;20543;-64
2021/04/03 02:32:53;;;;;;;8.27;5.67;;;7.90;99.90;;;;;;4159794;28;20037;-65
2021/04/03 02:34:55;;;;;;;10.73;5.60;;;7.80;99.90;;;;;;4158014;28;20477;-64
2021/04/03 02:36:56;;;;;;;9.50;6.00;;;7.70;99.90;;;;;;4159320;28;20033;-65
2021/04/03 02:38:57;;;;;;;9.27;5.57;;;7.70;99.90;;;;;;4158110;28;20029;-65
2021/04/03 02:40:58;;;;;;;9.90;5.50;;;7.70;99.90;;;;;;4158782;28;20041;-64
2021/04/03 02:43:12;;;;;;;8.20;5.40;;;7.60;99.90;;;;;;4158034;28;20033;-64
2021/04/03 02:45:17;;;;;;;10.23;4.90;;;7.50;99.90;;;;;;4158406;28;20026;-65
2021/04/03 02:47:32;;;;;;;11.47;5.80;;;7.50;99.90;;;;;;4158775;28;20063;-68
2021/04/03 02:49:39;;;;;;;7.67;5.23;;;7.40;99.90;;;;;;4158465;28;20030;-64
2021/04/03 02:51:45;;;;;;;7.30;5.10;;;7.40;99.90;;;;;;4158009;28;20025;-64
2021/04/03 02:53:47;;;;;;;11.03;5.60;;;7.30;99.90;;;;;;4158561;28;20041;-65
2021/04/03 02:55:54;;;;;;;8.90;5.83;;;7.20;99.90;;;;;;4158955;28;20033;-64
2021/04/03 02:57:56;;;;;;;10.87;5.83;;;7.20;99.90;;;;;;4158450;28;20049;-63
2021/04/03 02:59:59;;;;;;;9.40;6.13;;;7.10;99.90;;;;;;4158261;28;20102;-66
2021/04/03 03:02:02;;;;;;;10.07;6.23;;;7.00;99.90;;;;;;4157351;28;20084;-64
2021/04/03 03:04:05;;;;;;;12.67;6.27;;;7.00;99.90;;;;;;4159203;28;20944;-64
2021/04/03 03:06:07;;;;;;;12.50;6.40;;;7.00;99.90;;;;;;4157967;28;20025;-63
2021/04/03 03:08:11;;;;;;;9.13;5.47;;;7.00;99.90;;;;;;4159526;28;20087;-66
2021/04/03 03:10:18;;;;;;;8.80;5.63;;;7.00;99.90;;;;;;4157146;28;20099;-64
2021/04/03 03:12:24;;;;;;;8.27;5.83;;;7.00;99.90;;;;;;4158847;28;20037;-64
2021/04/03 03:14:26;;;;;;;9.47;5.57;;;7.00;99.90;;;;;;4156966;28;20075;-66
2021/04/03 03:16:28;;;;;;;8.17;4.70;;;7.00;99.90;;;;;;4158989;28;20507;-64
2021/04/03 03:18:30;;;;;;;10.47;5.03;;;7.00;99.90;;;;;;4157204;28;20091;-64
2021/04/03 03:20:32;;;;;;;6.70;4.33;;;7.00;99.90;;;;;;4158773;28;20087;-63
2021/04/03 03:22:33;;;;;;;7.53;4.30;;;7.00;99.90;;;;;;4157321;28;20099;-65
2021/04/03 03:24:35;;;;;;;7.47;4.40;;;7.00;99.90;;;;;;4159041;28;20107;-67
2021/04/03 03:26:39;;;;;;;7.70;4.90;;;7.00;99.90;;;;;;4157220;28;20049;-64
2021/04/03 03:28:40;;;;;;;9.43;4.73;;;7.00;99.90;;;;;;4157061;28;20037;-65
2021/04/03 03:30:41;;;;;;;7.93;4.97;;;7.00;99.90;;;;;;4157730;28;20103;-64
2021/04/03 03:32:43;;;;;;;7.83;5.23;;;7.00;99.90;;;;;;4156660;28;20517;-65
2021/04/03 03:34:44;;;;;;;7.93;5.53;;;6.90;99.90;;;;;;4157271;28;20092;-64
2021/04/03 03:36:45;;;;;;;9.50;5.80;;;6.90;99.90;;;;;;4157215;28;20025;-67
2021/04/03 03:38:47;;;;;;;7.57;5.17;;;6.80;99.90;;;;;;4158694;28;20508;-63
2021/04/03 03:40:49;;;;;;;8.37;5.67;;;6.80;99.90;;;;;;4157012;28;20049;-64
2021/04/03 03:42:51;;;;;;;9.57;5.77;;;6.70;99.90;;;;;;4158615;28;20037;-65
2021/04/03 03:44:53;;;;;;;10.70;6.03;;;6.70;99.90;;;;;;4156652;28;20551;-67
2021/04/03 03:46:54;;;;;;;9.63;5.23;;;6.70;99.90;;;;;;4158903;28;20034;-64
2021/04/03 03:48:55;;;;;;;7.67;6.23;;;6.60;99.90;;;;;;4157312;28;20033;-64
2021/04/03 03:50:58;;;;;;;10.80;6.07;;;6.60;99.90;;;;;;4158157;28;20041;-63
2021/04/03 03:52:59;;;;;;;12.47;6.73;;;6.60;99.90;;;;;;4157425;28;20103;-69
2021/04/03 03:55:00;;;;;;;9.60;5.97;;;6.60;99.90;;;;;;4158487;28;20022;-70
2021/04/03 03:57:02;;;;;;;9.10;6.50;;;6.60;99.90;;;;;;4156727;28;20026;-68
2021/04/03 03:59:04;;;;;;;15.50;6.10;;;6.70;99.90;;;;;;4158281;28;20033;-69
2021/04/03 04:01:05;;;;;;;9.97;6.33;;;6.70;99.90;;;;;;4156582;28;20033;-68
2021/04/03 04:03:06;;;;;;;10.10;6.53;;;6.70;99.90;;;;;;4157746;28;20520;-68
2021/04/03 04:05:08;;;;;;;8.30;5.67;;;6.70;99.90;;;;;;4157523;28;20025;-66
2021/04/03 04:07:09;;;;;;;9.87;5.03;;;6.70;99.90;;;;;;4156475;28;20469;-65
2021/04/03 04:09:10;;;;;;;10.27;6.30;;;6.70;99.90;;;;;;4158047;28;20038;-68
2021/04/03 04:11:13;;;;;;;13.23;6.43;;;6.70;99.90;;;;;;4155821;28;20101;-65
2021/04/03 04:13:15;;;;;;;8.80;5.50;;;6.70;99.90;;;;;;4156541;28;20061;-65
2021/04/03 04:15:16;;;;;;;11.10;5.50;;;6.70;99.90;;;;;;4156468;28;20029;-64
2021/04/03 04:17:17;;;;;;;10.67;5.47;;;6.70;99.90;;;;;;4156918;28;20041;-67
2021/04/03 04:19:18;;;;;;;9.10;5.53;;;6.70;99.90;;;;;;4157426;28;20030;-66
2021/04/03 04:21:19;;;;;;;11.17;5.70;;;6.70;99.90;;;;;;4157900;28;20420;-66
2021/04/03 04:23:20;;;;;;;11.53;5.53;;;6.70;99.90;;;;;;4156158;28;20029;-69
2021/04/03 04:25:22;;;;;;;9.63;5.57;;;6.80;99.90;;;;;;4157941;28;20969;-67
2021/04/03 04:27:23;;;;;;;14.17;6.37;;;6.80;99.90;;;;;;4155831;28;20029;-68
2021/04/03 04:29:24;;;;;;;12.20;6.33;;;6.80;99.90;;;;;;4157606;28;20079;-69
2021/04/03 04:31:26;;;;;;;12.63;5.53;;;6.80;99.90;;;;;;4155823;28;20456;-64
2021/04/03 04:33:29;;;;;;;18.47;6.03;;;6.80;99.90;;;;;;4156670;28;20072;-65
2021/04/03 04:35:30;;;;;;;13.70;6.07;;;6.90;99.90;;;;;;4156733;28;20123;-68
2021/04/03 04:37:31;;;;;;;11.77;5.97;;;6.90;99.90;;;;;;4156875;28;20420;-64
2021/04/03 04:39:32;;;;;;;8.27;5.37;;;6.90;99.90;;;;;;4156984;28;20082;-64
2021/04/03 04:41:33;;;;;;;10.07;6.17;;;6.90;99.90;;;;;;4155893;28;20029;-64
2021/04/03 04:43:36;;;;;;;13.13;6.00;;;6.90;99.90;;;;;;4157302;28;20219;-68
2021/04/03 04:45:37;;;;;;;11.70;6.37;;;6.80;99.90;;;;;;4154829;28;20037;-67
2021/04/03 04:47:38;;;;;;;10.40;6.23;;;6.80;99.90;;;;;;4156969;28;20544;-63
2021/04/03 04:49:39;;;;;;;11.07;6.20;;;6.80;99.90;;;;;;4155540;28;20124;-65
2021/04/03 04:51:41;;;;;;;10.90;6.00;;;6.80;99.90;;;;;;4156699;28;20091;-65
2021/04/03 04:53:42;;;;;;;15.30;7.40;;;6.80;99.90;;;;;;4154897;28;20096;-65
2021/04/03 04:55:43;;;;;;;13.67;6.03;;;6.80;99.90;;;;;;4156607;28;20033;-64
2021/04/03 04:57:44;;;;;;;12.07;7.20;;;6.90;99.90;;;;;;4155212;28;20049;-65
2021/04/03 04:59:45;;;;;;;12.40;6.70;;;6.90;99.90;;;;;;4156793;28;20042;-65
2021/04/03 05:01:46;;;;;;;13.57;6.60;;;7.10;99.90;;;;;;4155526;28;20099;-65
2021/04/03 05:03:48;;;;;;;12.53;6.77;;;7.20;99.90;;;;;;4156150;28;20034;-67
2021/04/03 05:05:49;;;;;;;13.87;8.07;;;7.30;99.90;;;;;;4155314;28;20029;-67
2021/04/03 05:07:50;;;;;;;11.00;6.80;;;7.60;99.90;;;;;;4155383;28;20087;-71
2021/04/03 05:09:51;;;;;;;16.63;7.80;;;8.00;99.90;;;;;;4153874;28;20045;-65
2021/04/03 05:11:52;;;;;;;11.83;6.90;;;8.10;99.90;;;;;;4154645;28;20441;-68
2021/04/03 05:13:54;;;;;;;13.47;7.80;;;8.40;99.90;;;;;;4154610;28;20080;-70
2021/04/03 05:15:55;;;;;;;10.97;7.03;;;8.70;99.90;;;;;;4155114;28;20075;-69
2021/04/03 05:17:57;;;;;;;10.60;6.77;;;8.90;99.90;;;;;;4156716;28;20132;-70
2021/04/03 05:19:58;;;;;;;10.07;6.07;;;9.20;99.90;;;;;;4155246;28;20038;-70
2021/04/03 05:21:59;;;;;;;10.47;6.23;;;9.20;99.90;;;;;;4156809;28;20818;-65
2021/04/03 05:24:00;;;;;;;13.83;6.40;;;9.10;99.90;;;;;;4154829;28;20103;-65
2021/04/03 05:26:01;;;;;;;9.47;5.70;;;9.00;99.90;;;;;;4156201;28;20033;-69
2021/04/03 05:28:02;;;;;;;9.57;5.50;;;8.90;99.90;;;;;;4154782;28;20056;-64
2021/04/03 05:30:04;;;;;;;8.80;5.93;;;8.80;99.90;;;;;;4156207;28;20040;-65
2021/04/03 05:32:06;;;;;;;10.93;6.40;;;8.70;99.90;;;;;;4154364;28;20037;-65
2021/04/03 05:34:07;;;;;;;10.17;6.23;;;8.60;99.90;;;;;;4155848;28;21139;-70
2021/04/03 05:36:09;;;;;;;10.40;6.23;;;8.60;99.90;;;;;;4155039;28;20107;-64
2021/04/03 05:38:10;;;;;;;17.37;7.17;;;8.60;99.90;;;;;;4154898;28;20092;-69
2021/04/03 05:40:11;;;;;;;9.00;6.07;;;8.60;99.90;;;;;;4155608;28;20029;-64
2021/04/03 05:42:15;;;;;;;13.17;7.10;;;8.50;99.90;;;;;;4154821;28;20041;-66
2021/04/03 05:44:22;;;;;;;11.50;6.97;;;8.50;99.90;;;;;;4155466;28;20588;-67
2021/04/03 05:46:24;;;;;;;10.40;6.73;;;8.60;99.90;;;;;;4152438;28;20034;-67
2021/04/03 05:48:26;;;;;;;14.23;7.30;;;8.60;99.90;;;;;;4156114;28;20557;-64
2021/04/03 05:50:27;;;;;;;14.37;7.30;;;8.60;99.90;;;;;;4153976;28;20042;-66
2021/04/03 05:52:29;;;;;;;15.97;7.43;;;8.60;99.90;;;;;;4156053;28;20599;-62
2021/04/03 05:54:30;;;;;;;13.50;7.60;;;8.60;99.90;;;;;;4154282;28;20421;-64
2021/04/03 05:56:32;;;;;;;14.97;8.70;;;8.60;99.90;;;;;;4157800;28;20063;-71
2021/04/03 05:58:33;;;;;;;14.03;7.37;;;8.60;99.90;;;;;;4158229;28;20079;-65
2021/04/03 06:00:34;;;;;;;14.20;7.67;;;8.40;99.90;;;;;;4160113;28;20046;-63
2021/04/03 06:02:39;;;;;;;15.50;8.20;;;8.20;99.90;;;;;;4157875;28;20079;-68
2021/04/03 06:04:40;;;;;;;14.60;8.33;;;8.10;99.90;;;;;;4159332;28;20155;-68
2021/04/03 06:06:42;;;;;;;13.47;8.13;;;8.10;99.90;;;;;;4158116;28;20428;-67
2021/04/03 06:08:44;;;;;;;14.33;7.90;;;8.10;99.90;;;;;;4157457;28;20159;-65
2021/04/03 06:11:13;;;;;;;13.37;7.63;;;8.00;99.90;;;;;;4158287;28;20029;-66
2021/04/03 06:13:18;;;;;;;15.30;8.00;;;8.00;99.90;;;;;;4159435;28;20091;-65
2021/04/03 06:15:28;;;;;;;16.47;9.50;;;8.00;99.90;;;;;;4157886;28;20456;-60
2021/04/03 06:17:29;;;;;;;19.33;9.77;;;8.00;99.90;;;;;;4159425;28;20041;-64
2021/04/03 06:19:31;;;;;;;16.93;9.70;;;8.00;99.90;;;;;;4156422;28;20517;-66
2021/04/03 06:21:33;;;;;;;18.47;7.97;;;8.00;99.90;;;;;;4157481;28;20021;-63
2021/04/03 06:23:34;;;;;;;12.37;7.70;;;8.00;99.90;;;;;;4157909;28;20033;-69
2021/04/03 06:25:54;;;;;;;12.77;7.57;;;8.00;99.90;;;;;;4158122;28;20104;-66
2021/04/03 06:28:08;;;;;;;13.15;6.68;;;8.00;99.90;;;;;;4167530;28;20041;-65
2021/04/03 06:30:29;;;;;;;11.33;6.43;;;8.00;99.90;;;;;;4175124;28;20044;-68
2021/04/03 06:32:32;;;;;;;12.30;7.60;;;8.00;99.90;;;;;;4173677;28;20634;-65
2021/04/03 06:34:37;;;;;;;14.97;7.00;;;8.00;99.90;;;;;;4175028;28;20370;-66
2021/04/03 06:36:45;;;;;;;12.23;7.27;;;8.00;99.90;;;;;;4174213;28;20029;-66
2021/04/03 06:38:46;;;;;;;12.50;7.60;;;8.00;99.90;;;;;;4174622;28;20028;-63
2021/04/03 06:40:48;;;;;;;13.73;7.73;;;8.00;99.90;;;;;;4174973;28;20075;-65
2021/04/03 06:42:52;;;;;;;27.07;16.23;;;8.10;99.90;;;;;;4173541;28;20465;-64
2021/04/03 06:44:53;;;;;;;15.23;9.40;;;8.10;99.90;;;;;;4175057;28;20063;-65
2021/04/03 06:46:59;;;;;;;10.00;6.47;;;8.20;99.90;;;;;;4166924;28;20041;-64
2021/04/03 06:49:01;;;;;;;14.60;7.47;;;8.30;99.90;;;;;;4159330;28;20029;-66
2021/04/03 06:51:03;;;;;;;14.63;8.47;;;8.40;99.90;;;;;;4157575;28;20030;-66
2021/04/03 06:53:09;;;;;;;12.40;5.97;;;8.60;99.90;;;;;;4158979;28;20033;-66
2021/04/03 06:55:19;;;;;;;13.27;6.77;;;8.70;99.90;;;;;;4157124;28;20520;-62
2021/04/03 06:57:20;;;;;;;11.60;6.57;;;8.70;99.90;;;;;;4156677;28;20033;-66
2021/04/03 06:59:24;;;;;;;11.70;6.73;;;8.60;99.90;;;;;;4156906;28;20041;-67
2021/04/03 07:01:29;;;;;;;13.90;7.80;;;8.50;99.90;;;;;;4158164;28;20034;-66
2021/04/03 07:03:33;;;;;;;11.60;6.90;;;8.40;99.90;;;;;;4156716;28;20033;-69
2021/04/03 07:05:36;;;;;;;11.90;7.03;;;8.50;99.90;;;;;;4157142;28;20046;-66
2021/04/03 07:07:38;;;;;;;17.90;7.70;;;8.50;99.90;;;;;;4156688;28;20538;-66
2021/04/03 07:09:42;;;;;;;18.67;9.67;;;8.70;99.90;;;;;;4158717;28;20041;-67
2021/04/03 07:11:45;;;;;;;14.47;8.37;;;8.80;99.90;;;;;;4156838;28;20433;-68
2021/04/03 07:13:47;;;;;;;15.77;7.97;;;8.80;99.90;;;;;;4158112;28;20030;-67
2021/04/03 07:15:52;;;;;;;15.77;8.00;;;8.80;99.90;;;;;;4155209;28;20041;-70
2021/04/03 07:17:54;;;;;;;12.63;8.27;;;8.70;99.90;;;;;;4158521;28;20059;-70
2021/04/03 07:19:56;;;;;;;15.03;7.77;;;8.70;99.90;;;;;;4157366;28;20029;-63
2021/04/03 07:21:57;;;;;;;11.00;6.87;;;8.70;99.90;;;;;;4157802;28;20037;-70
2021/04/03 07:23:59;;;;;;;12.73;7.43;;;8.80;99.90;;;;;;4157516;28;20049;-65
2021/04/03 07:26:02;;;;;;;17.13;7.50;;;8.80;99.90;;;;;;4156668;28;20095;-66
2021/04/03 07:28:04;;;;;;;10.50;5.47;;;8.90;99.90;;;;;;4158044;28;20041;-65
2021/04/03 07:30:06;;;;;;;19.00;7.87;;;9.00;99.90;;;;;;4156372;28;20156;-66
2021/04/03 07:32:08;;;;;;;10.00;7.43;;;9.00;99.90;;;;;;4158188;28;20699;-65
2021/04/03 07:34:09;;;;;;;12.70;8.40;;;9.00;99.90;;;;;;4156625;28;20453;-65
2021/04/03 07:36:10;;;;;;;10.67;6.93;;;9.00;99.90;;;;;;4158346;28;20083;-65
2021/04/03 07:38:14;;;;;;;15.17;8.63;;;9.10;99.90;;;;;;4155994;28;20045;-67
2021/04/03 07:40:43;;;;;;;10.90;7.87;;;9.10;99.90;;;;;;4157408;28;20055;-65
2021/04/03 07:42:44;;;;;;;13.80;8.27;;;9.10;99.90;;;;;;4155648;28;20042;-65
2021/04/03 07:44:45;;;;;;;14.30;7.60;;;9.10;99.90;;;;;;4158028;28;20095;-65
2021/04/03 07:46:47;;;;;;;15.53;8.47;;;9.20;99.90;;;;;;4156153;28;20067;-65
2021/04/03 07:48:51;;;;;;;11.40;7.40;;;9.30;99.90;;;;;;4158339;28;20095;-67
2021/04/03 07:50:52;;;;;;;12.43;7.20;;;9.30;99.90;;;;;;4155805;28;20071;-67
2021/04/03 07:52:55;;;;;;;15.43;7.50;;;9.30;99.90;;;;;;4157452;28;20593;-65
2021/04/03 07:54:56;;;;;;;11.90;7.20;;;9.30;99.90;;;;;;4156036;28;20049;-66
2021/04/03 07:57:01;;;;;;;16.87;10.27;;;9.20;99.90;;;;;;4156141;28;20139;-66
2021/04/03 07:59:02;;;;;;;14.57;7.63;;;9.20;99.90;;;;;;4156197;28;20516;-67
2021/04/03 08:01:06;;;;;;;15.70;6.50;;;9.20;99.90;;;;;;4156722;28;20038;-66
2021/04/03 08:03:07;;;;;;;12.40;6.10;;;9.10;99.90;;;;;;4156643;28;20449;-66
2021/04/03 08:05:11;;;;;;;10.23;6.50;;;9.00;99.90;;;;;;4156347;28;20045;-67
2021/04/03 08:07:14;;;;;;;12.47;7.00;;;9.00;99.90;;;;;;4156986;28;20029;-66
2021/04/03 08:09:17;;;;;;;10.47;6.57;;;9.00;99.90;;;;;;4156114;28;20102;-64
2021/04/03 08:11:18;;;;;;;9.27;6.97;;;9.00;99.90;;;;;;4157264;28;20037;-65
2021/04/03 08:13:19;;;;;;;11.97;7.80;;;9.10;99.90;;;;;;4156151;28;20034;-64
2021/04/03 08:15:22;;;;;;;17.67;9.97;;;9.20;99.90;;;;;;4157059;28;20045;-65
2021/04/03 08:17:24;;;;;;;18.63;10.17;;;9.40;99.90;;;;;;4155480;28;20026;-65
2021/04/03 08:19:28;;;;;;;6.30;3.60;;;9.50;99.90;;;;;;4157166;28;20780;-64
2021/04/03 08:21:43;;;;;;;7.63;3.90;;;9.40;99.90;;;;;;4155476;28;20075;-65
2021/04/03 08:23:48;;;;;;;8.40;4.03;;;9.50;99.90;;;;;;4157160;28;20045;-65
2021/04/03 08:25:53;;;;;;;7.80;4.43;;;9.50;99.90;;;;;;4155482;28;20058;-64
2021/04/03 08:27:54;;;;;;;6.27;3.97;;;9.40;99.90;;;;;;4157474;28;20083;-64
2021/04/03 08:29:58;;;;;;;8.90;5.03;;;9.30;99.90;;;;;;4155936;28;20087;-65
2021/04/03 08:32:00;;;;;;;13.17;6.40;;;9.40;99.90;;;;;;4155451;28;20041;-65
2021/04/03 08:34:05;;;;;;;12.03;5.40;;;9.30;99.90;;;;;;4155609;28;20072;-64
2021/04/03 08:36:14;;;;;;;10.10;4.87;;;9.30;99.90;;;;;;4157684;28;20095;-64
2021/04/03 08:38:19;;;;;;;6.27;4.20;;;9.40;99.90;;;;;;4155914;28;20049;-67
2021/04/03 08:40:31;;;;;;;8.93;4.57;;;9.50;99.90;;;;;;4156434;28;20749;-67
2021/04/03 08:42:33;;;;;;;7.17;3.70;;;9.50;99.90;;;;;;4155226;28;20049;-64
2021/04/03 08:44:34;;;;;;;11.80;6.10;;;9.60;99.90;;;;;;4157138;28;20041;-64
2021/04/03 08:46:35;;;;;;;8.83;4.83;;;9.50;99.90;;;;;;4155679;28;20635;-65
2021/04/03 08:48:38;;;;;;;6.03;4.10;;;9.40;99.90;;;;;;4156825;28;20028;-65
2021/04/03 08:50:45;;;;;;;5.00;2.60;;;9.40;99.90;;;;;;4156479;28;20425;-65
2021/04/03 08:52:46;;;;;;;8.80;3.03;;;9.40;99.90;;;;;;4155955;28;20092;-65
2021/04/03 08:54:47;;;;;;;5.47;2.87;;;9.40;99.90;;;;;;4155843;28;20046;-64
2021/04/03 08:56:48;;;;;;;4.17;3.27;;;9.40;99.90;;;;;;4154597;28;20083;-65
2021/04/03 08:58:51;;;;;;;6.40;3.60;;;9.30;99.90;;;;;;4156707;28;20033;-65
2021/04/03 09:00:52;;;;;;;5.37;3.17;;;9.30;99.90;;;;;;4154988;28;20033;-65
2021/04/03 09:02:55;;;;;;;3.17;2.00;;;9.40;99.90;;;;;;4156556;28;20109;-64
2021/04/03 09:05:01;;;;;;;4.00;3.00;;;9.40;99.90;;;;;;4155056;28;20075;-67
2021/04/03 09:07:02;;;;;;;2.70;2.20;;;9.40;99.90;;;;;;4157065;28;20088;-66
2021/04/03 09:09:21;;;;;;;4.07;2.40;;;9.40;99.90;;;;;;4155172;28;20037;-65
2021/04/03 09:11:22;;;;;;;4.83;2.40;;;9.50;99.90;;;;;;4155546;28;20045;-65
2021/04/03 09:13:30;;;;;;;4.13;2.57;;;9.60;99.90;;;;;;4154771;28;20420;-65
2021/04/03 09:15:31;;;;;;;2.53;1.30;;;9.60;99.90;;;;;;4156450;28;20507;-65
2021/04/03 09:17:33;;;;;;;2.33;1.53;;;9.70;99.80;;;;;;4154436;28;20033;-64
2021/04/03 09:19:36;;;;;;;11.87;1.20;;;9.70;98.70;;;;;;4155953;28;20033;-64
2021/04/03 09:21:43;;;;;;;3.20;1.27;;;9.70;97.30;;;;;;4154506;28;20107;-65
2021/04/03 09:23:48;;;;;;;5.23;1.30;;;9.60;96.20;;;;;;4156281;28;20501;-65
2021/04/03 09:26:03;;;;;;;4.73;1.43;;;9.50;96.80;;;;;;4154579;28;20123;-68
2021/04/03 09:28:06;;;;;;;3.50;1.83;;;9.40;95.10;;;;;;4156007;28;20033;-65
2021/04/03 09:30:13;;;;;;;3.63;1.83;;;9.30;95.40;;;;;;4154696;28;20572;-69
2021/04/03 09:32:16;;;;;;;3.37;1.57;;;9.10;93.10;;;;;;4155828;28;20053;-65
2021/04/03 09:34:17;;;;;;;1.37;1.07;;;9.10;94.40;;;;;;4154427;28;20053;-67
2021/04/03 09:36:19;;;;;;;4.77;2.17;;;9.10;94.00;;;;;;4155597;28;20033;-68
2021/04/03 09:38:33;;;;;;;2.57;1.60;;;9.10;94.80;;;;;;4155429;28;20071;-66
2021/04/03 09:40:52;;;;;;;3.27;1.67;;;9.10;95.60;;;;;;4155525;28;20021;-63
2021/04/03 09:42:56;;;;;;;3.30;1.60;;;8.90;97.00;;;;;;4154753;28;20017;-65
2021/04/03 09:45:00;;;;;;;2.87;1.73;;;8.70;98.90;;;;;;4155382;28;20092;-66
2021/04/03 09:47:01;;;;;;;1.93;1.60;;;8.60;99.80;;;;;;4154326;28;20071;-66
2021/04/03 09:49:02;;;;;;;4.30;2.10;;;8.50;99.90;;;;;;4153151;28;20321;-68
2021/04/03 09:51:07;;;;;;;3.07;1.80;;;8.50;99.90;;;;;;4155180;28;20099;-66
2021/04/03 09:53:10;;;;;;;4.03;1.87;;;8.50;99.90;;;;;;4154410;28;20041;-64
2021/04/03 09:55:11;;;;;;;7.73;2.20;;;8.50;99.90;;;;;;4155336;28;20448;-62
2021/04/03 09:57:14;;;;;;;6.30;3.37;;;8.60;99.90;;;;;;4154826;28;20088;-63
2021/04/03 09:59:15;;;;;;;10.10;3.20;;;8.60;99.90;;;;;;4155134;28;20448;-65
2021/04/03 10:01:18;;;;;;;7.70;3.80;;;8.70;99.90;;;;;;4154089;28;20053;-65
2021/04/03 10:03:19;;;;;;;4.93;3.17;;;8.80;99.80;;;;;;4155880;28;20037;-64
2021/04/03 10:05:22;;;;;;;7.13;2.03;;;8.80;99.00;;;;;;4153982;28;20096;-64
2021/04/03 10:07:23;;;;;;;3.27;2.23;;;8.80;98.10;;;;;;4155714;28;20033;-64
2021/04/03 10:09:25;;;;;;;4.43;2.90;;;8.80;97.60;;;;;;4154445;28;20030;-64
2021/04/03 10:11:26;;;;;;;4.53;2.30;;;8.90;97.30;;;;;;4155889;28;20096;-64
2021/04/03 10:13:27;;;;;;;4.50;1.87;;;9.00;96.20;;;;;;4154240;28;20064;-62
2021/04/03 10:15:29;;;;;;;2.53;1.80;;;9.10;95.70;;;;;;4155420;28;20046;-65
2021/04/03 10:17:30;;;;;;;6.40;3.17;;;9.10;94.80;;;;;;4153882;28;20465;-67
2021/04/03 10:19:31;;;;;;;3.43;1.80;;;9.20;94.50;;;;;;4155794;28;20030;-67
2021/04/03 10:21:33;;;;;;;2.80;1.20;;;9.20;94.00;;;;;;4155148;28;20080;-64
2021/04/03 10:23:34;;;;;;;4.60;1.80;;;9.20;93.70;;;;;;4154468;28;20053;-64
2021/04/03 10:25:35;;;;;;;2.57;1.37;;;9.10;93.50;;;;;;4155210;28;20079;-64
2021/04/03 10:27:38;;;;;;;3.97;1.47;;;9.10;93.60;;;;;;4154395;28;20037;-68
2021/04/03 10:29:39;;;;;;;2.50;1.67;;;9.00;93.50;;;;;;4156221;28;20588;-64
2021/04/03 10:31:40;;;;;;;3.70;2.00;;;8.90;93.70;;;;;;4153794;28;20099;-68
2021/04/03 10:33:41;;;;;;;1.70;1.57;;;8.80;93.30;;;;;;4156161;28;20033;-65
2021/04/03 10:35:42;;;;;;;2.87;1.60;;;8.80;93.60;;;;;;4153994;28;20477;-65
2021/04/03 10:37:43;;;;;;;3.60;1.77;;;8.80;93.50;;;;;;4156057;28;20041;-64
2021/04/03 10:39:44;;;;;;;6.03;1.90;;;8.70;93.40;;;;;;4154378;28;20457;-65
2021/04/03 10:41:46;;;;;;;2.77;1.43;;;8.70;93.70;;;;;;4153802;28;20033;-65
2021/04/03 10:43:47;;;;;;;2.50;1.53;;;8.70;93.70;;;;;;4156300;28;20060;-64
2021/04/03 10:45:48;;;;;;;2.87;2.20;;;8.70;93.60;;;;;;4169592;28;20091;-72
2021/04/03 10:47:50;;;;;;;4.83;2.37;;;8.70;93.70;;;;;;4163797;28;20033;-66